Time;durP1;ratioP1;P1;durP2;ratioP2;P2;SDS_P1;SDS_P2;PMS_P1;PMS_P2;Temp;Humidity;BMP_temperature;BMP_pressure;BME280_temperature;BME280_humidity;BME280_pressure;Samples;Min_cycle;Max_cycle;Signal;HPM_P1;HPM_P2
2021/12/23 00:00:47;;;;;;;23.87;12.47;;;1.40;99.90;;;;;;4969839;28;20188;-80
2021/12/23 00:03:14;;;;;;;23.33;13.23;;;1.40;99.90;;;;;;5001224;28;20199;-80
2021/12/23 00:05:40;;;;;;;24.13;13.57;;;1.40;99.90;;;;;;4986996;28;20199;-81
2021/12/23 00:08:06;;;;;;;26.73;13.20;;;1.40;99.90;;;;;;5002002;28;20196;-80
2021/12/23 00:10:31;;;;;;;25.10;13.40;;;1.40;99.90;;;;;;4953971;28;20199;-81
2021/12/23 00:12:57;;;;;;;23.13;13.10;;;1.40;99.90;;;;;;4969402;28;20223;-79
2021/12/23 00:15:32;;;;;;;26.63;12.90;;;1.40;99.90;;;;;;5001636;28;20795;-80
2021/12/23 00:18:30;;;;;;;22.17;13.07;;;1.40;99.90;;;;;;5001786;28;21192;-79
2021/12/23 00:23:44;;;;;;;26.77;13.57;;;1.40;99.90;;;;;;4992710;28;20195;-79
2021/12/23 00:26:10;;;;;;;26.60;14.30;;;1.40;99.90;;;;;;4976107;28;20249;-81
2021/12/23 00:28:37;;;;;;;21.40;13.53;;;1.40;99.90;;;;;;4975084;28;20196;-80
2021/12/23 00:31:04;;;;;;;26.70;13.73;;;1.40;99.90;;;;;;4954052;28;20200;-80
2021/12/23 00:33:30;;;;;;;24.83;13.10;;;1.40;99.90;;;;;;4991670;28;20186;-79
2021/12/23 00:35:57;;;;;;;22.87;13.73;;;1.40;99.90;;;;;;5001180;28;20206;-79
2021/12/23 00:38:31;;;;;;;28.73;14.07;;;1.50;99.90;;;;;;4987019;28;20261;-79
2021/12/23 00:41:00;;;;;;;24.60;13.87;;;1.50;99.90;;;;;;4994604;28;20726;-81
2021/12/23 00:43:25;;;;;;;26.67;14.43;;;1.40;99.90;;;;;;4975841;28;20200;-78
2021/12/23 00:45:51;;;;;;;26.87;14.80;;;1.50;99.90;;;;;;4975311;28;20207;-81
2021/12/23 00:48:17;;;;;;;26.73;13.93;;;1.50;99.90;;;;;;4990655;28;20188;-81
2021/12/23 00:50:44;;;;;;;24.30;14.23;;;1.50;99.90;;;;;;5007571;28;20624;-81
2021/12/23 00:53:10;;;;;;;28.33;14.33;;;1.50;99.90;;;;;;5006448;28;20190;-80
2021/12/23 00:55:37;;;;;;;24.03;13.83;;;1.50;99.90;;;;;;5000629;28;20222;-80
2021/12/23 00:58:03;;;;;;;27.37;14.70;;;1.60;99.90;;;;;;4984588;28;20226;-82
2021/12/23 01:00:30;;;;;;;30.17;14.57;;;1.50;99.90;;;;;;4984415;28;20514;-78
2021/12/23 01:02:59;;;;;;;30.87;14.63;;;1.50;99.90;;;;;;4986931;28;20849;-81
2021/12/23 01:05:26;;;;;;;32.33;16.47;;;1.50;99.90;;;;;;5001665;28;20199;-80
2021/12/23 01:07:52;;;;;;;28.70;15.23;;;1.40;99.90;;;;;;5001235;28;20217;-80
2021/12/23 01:10:18;;;;;;;32.23;15.50;;;1.40;99.90;;;;;;4991650;28;20203;-80
2021/12/23 01:12:48;;;;;;;28.60;15.47;;;1.30;99.90;;;;;;4960474;28;20215;-80
2021/12/23 01:15:27;;;;;;;28.43;15.47;;;1.30;99.90;;;;;;4941771;28;20239;-80
2021/12/23 01:18:00;;;;;;;30.40;15.60;;;1.20;99.90;;;;;;4968018;28;20208;-78
2021/12/23 01:20:30;;;;;;;32.03;16.23;;;1.20;99.90;;;;;;4956163;28;20203;-80
2021/12/23 01:23:06;;;;;;;37.10;16.60;;;1.20;99.90;;;;;;4971698;28;20185;-80
2021/12/23 01:25:34;;;;;;;28.83;16.00;;;1.20;99.90;;;;;;4983089;28;20184;-81
2021/12/23 01:28:00;;;;;;;27.20;16.03;;;1.10;99.90;;;;;;4966060;28;20204;-79
2021/12/23 01:30:26;;;;;;;30.70;16.23;;;1.10;99.90;;;;;;4964986;28;20184;-80
2021/12/23 01:32:54;;;;;;;31.13;16.13;;;1.10;99.90;;;;;;4963287;28;20208;-79
2021/12/23 01:35:20;;;;;;;31.50;16.13;;;1.10;99.90;;;;;;4955100;28;20231;-78
2021/12/23 01:37:47;;;;;;;29.43;15.93;;;1.10;99.90;;;;;;4963877;28;20243;-80
2021/12/23 01:40:14;;;;;;;32.40;16.70;;;1.10;99.90;;;;;;4971240;28;20239;-80
2021/12/23 01:42:41;;;;;;;31.97;17.00;;;1.00;99.90;;;;;;4949715;28;20208;-80
2021/12/23 01:45:20;;;;;;;31.27;16.63;;;1.00;99.90;;;;;;4981994;28;20176;-79
2021/12/23 01:47:46;;;;;;;31.37;17.20;;;1.00;99.90;;;;;;4965486;28;20177;-80
2021/12/23 01:50:16;;;;;;;32.63;17.37;;;0.90;99.90;;;;;;4971157;28;20192;-80
2021/12/23 01:52:42;;;;;;;29.60;17.23;;;0.90;99.90;;;;;;4969781;28;20192;-81
2021/12/23 01:55:09;;;;;;;29.43;17.03;;;0.90;99.90;;;;;;4970434;28;20301;-79
2021/12/23 01:57:36;;;;;;;32.70;18.60;;;0.90;99.90;;;;;;4986148;28;20362;-80
2021/12/23 02:00:07;;;;;;;37.57;19.07;;;1.00;99.90;;;;;;4981429;28;20196;-79
2021/12/23 02:02:32;;;;;;;41.53;20.23;;;1.00;99.90;;;;;;4983701;28;20176;-80
2021/12/23 02:04:58;;;;;;;49.63;24.23;;;1.00;99.90;;;;;;4953510;28;20219;-79
2021/12/23 02:07:24;;;;;;;49.17;22.80;;;1.00;99.90;;;;;;4970517;28;20222;-80
2021/12/23 02:09:50;;;;;;;43.73;24.10;;;1.00;99.90;;;;;;4967940;28;20196;-81
2021/12/23 02:12:16;;;;;;;52.93;24.87;;;1.00;99.90;;;;;;4937094;28;20689;-79
2021/12/23 02:14:42;;;;;;;51.23;26.27;;;1.00;99.90;;;;;;4977023;28;20235;-79
2021/12/23 02:17:09;;;;;;;50.07;26.90;;;1.00;99.90;;;;;;5004005;28;20212;-80
2021/12/23 02:19:34;;;;;;;52.27;25.83;;;1.00;99.90;;;;;;4993597;28;20192;-79
2021/12/23 02:22:00;;;;;;;50.80;26.73;;;1.10;99.90;;;;;;4973360;28;20196;-79
2021/12/23 02:24:26;;;;;;;49.73;25.87;;;1.00;99.90;;;;;;4992143;28;20222;-81
2021/12/23 02:26:52;;;;;;;57.40;27.70;;;1.00;99.90;;;;;;4995001;28;20239;-80
2021/12/23 02:29:18;;;;;;;55.67;28.27;;;1.00;99.90;;;;;;5002088;28;20274;-81
2021/12/23 02:31:51;;;;;;;58.60;28.53;;;0.90;99.90;;;;;;4993764;28;20201;-80
2021/12/23 02:34:18;;;;;;;51.97;27.97;;;0.90;99.90;;;;;;4987490;28;20208;-80
2021/12/23 02:36:56;;;;;;;59.53;28.43;;;0.90;99.90;;;;;;4978355;28;20209;-80
2021/12/23 02:39:23;;;;;;;54.70;28.47;;;0.90;99.90;;;;;;4993354;28;20237;-79
2021/12/23 02:41:49;;;;;;;61.73;29.70;;;0.90;99.90;;;;;;5002711;28;20207;-81
2021/12/23 02:44:15;;;;;;;59.43;28.47;;;0.90;99.90;;;;;;4970948;28;20188;-80
2021/12/23 02:46:41;;;;;;;58.27;29.20;;;1.00;99.90;;;;;;5009214;28;20219;-79
2021/12/23 02:49:07;;;;;;;58.30;29.80;;;1.00;99.90;;;;;;4994018;28;20191;-80
2021/12/23 02:51:33;;;;;;;56.83;29.37;;;1.00;99.90;;;;;;4976937;28;20186;-80
2021/12/23 02:53:59;;;;;;;64.80;30.77;;;0.90;99.90;;;;;;4978597;28;20183;-80
2021/12/23 02:56:24;;;;;;;61.50;29.47;;;1.00;99.90;;;;;;4985404;28;20191;-79
2021/12/23 02:58:50;;;;;;;58.30;29.13;;;1.00;99.90;;;;;;4993306;28;20619;-79
2021/12/23 03:01:18;;;;;;;58.10;29.37;;;1.00;99.90;;;;;;4970090;28;20192;-80
2021/12/23 03:03:44;;;;;;;66.90;32.40;;;1.00;99.90;;;;;;5004707;28;20216;-81
2021/12/23 03:06:11;;;;;;;66.83;31.30;;;1.00;99.90;;;;;;4992910;28;20198;-79
2021/12/23 03:08:40;;;;;;;56.70;29.30;;;0.90;99.90;;;;;;5002853;28;20290;-79
2021/12/23 03:11:08;;;;;;;65.87;30.53;;;0.90;99.90;;;;;;5003331;28;20180;-80
2021/12/23 03:13:34;;;;;;;64.37;30.50;;;0.90;99.90;;;;;;4975515;28;20210;-81
2021/12/23 03:16:01;;;;;;;64.93;30.27;;;0.90;99.90;;;;;;4984033;28;20239;-81
2021/12/23 03:18:27;;;;;;;58.80;28.03;;;0.90;99.90;;;;;;4991524;28;20754;-80
2021/12/23 03:20:54;;;;;;;60.60;29.57;;;0.90;99.90;;;;;;4975930;28;21087;-79
2021/12/23 03:23:20;;;;;;;66.10;31.90;;;0.90;99.90;;;;;;5004191;28;20189;-80
2021/12/23 03:25:45;;;;;;;65.83;31.13;;;0.90;99.90;;;;;;4992593;28;20710;-80
2021/12/23 03:28:11;;;;;;;69.60;30.67;;;0.90;99.90;;;;;;5002485;28;20214;-80
2021/12/23 03:30:38;;;;;;;64.87;30.03;;;1.00;99.90;;;;;;4984218;28;20180;-81
2021/12/23 03:33:04;;;;;;;68.87;31.70;;;1.10;99.90;;;;;;4991555;28;20188;-79
2021/12/23 03:35:30;;;;;;;68.77;31.77;;;1.10;99.90;;;;;;5001195;28;20700;-80
2021/12/23 03:37:57;;;;;;;69.17;30.50;;;1.10;99.90;;;;;;5002988;28;20212;-80
2021/12/23 03:40:23;;;;;;;68.53;30.43;;;1.10;99.90;;;;;;4992494;28;20180;-80
2021/12/23 03:42:49;;;;;;;65.60;30.80;;;1.00;99.90;;;;;;4976299;28;20838;-80
2021/12/23 03:45:16;;;;;;;65.67;31.23;;;1.00;99.90;;;;;;4984219;28;20191;-80
2021/12/23 03:47:45;;;;;;;65.53;31.17;;;1.00;99.90;;;;;;4974781;28;20744;-79
2021/12/23 03:50:10;;;;;;;73.30;30.63;;;0.90;99.90;;;;;;5003250;28;20215;-80
2021/12/23 03:52:36;;;;;;;67.00;31.50;;;0.90;99.90;;;;;;4969199;28;20207;-80
2021/12/23 03:55:03;;;;;;;69.27;32.33;;;0.90;99.90;;;;;;4985352;28;20200;-80
2021/12/23 03:57:29;;;;;;;70.00;32.30;;;0.80;99.90;;;;;;5002420;28;20215;-80
2021/12/23 03:59:54;;;;;;;70.13;31.93;;;0.80;99.90;;;;;;4976253;28;20207;-80
2021/12/23 04:02:20;;;;;;;70.70;32.23;;;0.90;99.90;;;;;;4976981;28;20187;-78
2021/12/23 04:04:46;;;;;;;75.73;33.27;;;1.00;99.90;;;;;;4975545;28;20743;-80
2021/12/23 04:07:11;;;;;;;78.43;32.83;;;1.00;99.90;;;;;;5002427;28;20218;-80
2021/12/23 04:09:37;;;;;;;75.10;32.53;;;1.00;99.90;;;;;;4966346;28;20248;-78
2021/12/23 04:12:03;;;;;;;69.37;31.87;;;1.00;99.90;;;;;;4991484;28;20287;-80
2021/12/23 04:14:29;;;;;;;75.53;33.33;;;1.10;99.90;;;;;;4953499;28;20329;-78
2021/12/23 04:16:54;;;;;;;75.27;33.97;;;1.20;99.90;;;;;;4975536;28;20242;-79
2021/12/23 04:19:20;;;;;;;71.03;31.63;;;1.20;99.90;;;;;;4960999;28;20618;-80
2021/12/23 04:21:46;;;;;;;68.00;31.77;;;1.30;99.90;;;;;;4986826;28;20199;-80
2021/12/23 04:24:12;;;;;;;68.90;31.73;;;1.30;99.90;;;;;;4993424;28;20219;-80
2021/12/23 04:26:39;;;;;;;69.27;31.30;;;1.30;99.90;;;;;;4984141;28;20555;-79
2021/12/23 04:29:05;;;;;;;72.83;32.00;;;1.30;99.90;;;;;;4985741;28;20199;-80
2021/12/23 04:31:32;;;;;;;67.60;31.47;;;1.40;99.90;;;;;;4989673;28;20187;-80
2021/12/23 04:33:58;;;;;;;73.10;32.70;;;1.40;99.90;;;;;;4991998;28;20203;-80
2021/12/23 04:36:29;;;;;;;70.13;31.70;;;1.40;99.90;;;;;;4985585;28;20199;-81
2021/12/23 04:38:55;;;;;;;70.13;31.47;;;1.30;99.90;;;;;;5002014;28;20183;-79
2021/12/23 04:41:21;;;;;;;71.57;32.00;;;1.30;99.90;;;;;;4970371;28;20187;-79
2021/12/23 04:43:46;;;;;;;65.37;31.43;;;1.30;99.90;;;;;;4984550;28;20196;-79
2021/12/23 04:46:12;;;;;;;72.47;32.50;;;1.30;99.90;;;;;;4967417;28;20192;-80
2021/12/23 04:48:38;;;;;;;67.07;31.70;;;1.30;99.90;;;;;;4975926;28;20261;-80
2021/12/23 04:51:04;;;;;;;63.80;30.43;;;1.20;99.90;;;;;;4983955;28;20191;-79
2021/12/23 04:53:30;;;;;;;70.30;32.07;;;1.20;99.90;;;;;;5000068;28;20203;-80
2021/12/23 04:55:56;;;;;;;72.03;32.57;;;1.20;99.90;;;;;;4958696;28;20187;-79
2021/12/23 04:58:22;;;;;;;67.03;30.43;;;1.20;99.90;;;;;;4983634;28;20330;-80
2021/12/23 05:00:50;;;;;;;70.13;31.23;;;1.20;99.90;;;;;;4990162;28;20188;-81
2021/12/23 05:03:17;;;;;;;69.30;31.53;;;1.20;99.90;;;;;;4984890;28;20204;-79
2021/12/23 05:05:43;;;;;;;70.90;31.43;;;1.20;99.90;;;;;;4968323;28;20231;-78
2021/12/23 05:08:09;;;;;;;68.87;32.13;;;1.20;99.90;;;;;;4985346;28;20187;-80
2021/12/23 05:10:35;;;;;;;69.30;32.07;;;1.20;99.90;;;;;;4975691;28;20377;-81
2021/12/23 05:13:02;;;;;;;73.83;31.53;;;1.10;99.90;;;;;;4974372;28;20303;-80
2021/12/23 05:15:28;;;;;;;60.93;29.73;;;1.10;99.90;;;;;;4989754;28;20346;-81
2021/12/23 05:17:54;;;;;;;68.33;28.80;;;1.10;99.90;;;;;;4989857;28;20210;-81
2021/12/23 05:20:20;;;;;;;69.23;30.70;;;1.10;99.90;;;;;;4973506;28;20184;-81
2021/12/23 05:22:47;;;;;;;74.10;32.13;;;1.10;99.90;;;;;;4983274;28;20179;-80
2021/12/23 05:25:13;;;;;;;66.47;31.33;;;1.10;99.90;;;;;;4982471;28;20187;-81
2021/12/23 05:27:39;;;;;;;64.87;31.00;;;1.10;99.90;;;;;;4999376;28;20234;-80
2021/12/23 05:30:07;;;;;;;68.83;31.00;;;1.10;99.90;;;;;;4984652;28;20651;-80
2021/12/23 05:32:33;;;;;;;63.77;30.57;;;1.20;99.90;;;;;;4990604;28;20187;-79
2021/12/23 05:34:59;;;;;;;70.20;31.47;;;1.10;99.90;;;;;;4983498;28;20207;-80
2021/12/23 05:37:24;;;;;;;67.70;30.77;;;1.10;99.90;;;;;;4988648;28;20242;-80
2021/12/23 05:39:50;;;;;;;66.93;31.43;;;1.20;99.90;;;;;;4992967;28;20307;-79
2021/12/23 05:42:16;;;;;;;70.87;33.03;;;1.20;99.90;;;;;;4978030;28;20298;-80
2021/12/23 05:44:41;;;;;;;68.70;31.53;;;1.20;99.90;;;;;;4969644;28;20282;-80
2021/12/23 05:47:07;;;;;;;67.47;30.70;;;1.20;99.90;;;;;;4992769;28;20297;-79
2021/12/23 05:49:33;;;;;;;65.43;30.80;;;1.20;99.90;;;;;;4971489;28;20191;-79
2021/12/23 05:51:59;;;;;;;70.10;32.57;;;1.20;99.90;;;;;;5004417;28;20179;-80
2021/12/23 05:54:24;;;;;;;65.60;29.47;;;1.20;99.90;;;;;;4993639;28;20249;-79
2021/12/23 05:56:50;;;;;;;64.67;28.93;;;1.20;99.90;;;;;;4970078;28;20215;-80
2021/12/23 05:59:16;;;;;;;61.93;29.60;;;1.20;99.90;;;;;;5004910;28;20190;-80
2021/12/23 06:01:42;;;;;;;68.20;31.43;;;1.20;99.90;;;;;;4994270;28;20333;-79
2021/12/23 06:04:08;;;;;;;65.30;31.10;;;1.20;99.90;;;;;;4955462;28;20216;-80
2021/12/23 06:06:34;;;;;;;68.73;32.87;;;1.30;99.90;;;;;;5002820;28;20196;-78
2021/12/23 06:09:00;;;;;;;61.47;30.87;;;1.30;99.90;;;;;;4996188;28;20195;-80
2021/12/23 06:11:27;;;;;;;64.90;30.03;;;1.30;99.90;;;;;;4994102;28;20184;-79
2021/12/23 06:13:52;;;;;;;61.47;28.53;;;1.30;99.90;;;;;;4971418;28;20211;-80
2021/12/23 06:16:18;;;;;;;63.47;29.77;;;1.30;99.90;;;;;;4968168;28;20286;-80
2021/12/23 06:18:43;;;;;;;66.63;30.67;;;1.30;99.90;;;;;;4950322;28;20331;-79
2021/12/23 06:21:09;;;;;;;64.07;30.03;;;1.30;99.90;;;;;;4974032;28;20185;-79
2021/12/23 06:23:35;;;;;;;69.07;30.80;;;1.30;99.90;;;;;;4966706;28;20207;-80
2021/12/23 06:26:01;;;;;;;60.83;29.77;;;1.40;99.90;;;;;;4967376;28;20235;-79
2021/12/23 06:28:27;;;;;;;66.07;31.20;;;1.40;99.90;;;;;;4951647;28;20221;-81
2021/12/23 06:30:53;;;;;;;66.67;30.60;;;1.50;99.90;;;;;;4957502;28;20235;-81
2021/12/23 06:33:18;;;;;;;69.37;32.40;;;1.50;99.90;;;;;;4951917;28;20277;-80
2021/12/23 06:35:44;;;;;;;67.83;31.40;;;1.60;99.90;;;;;;4943287;28;20196;-80
2021/12/23 06:38:12;;;;;;;64.30;29.83;;;1.70;99.90;;;;;;4935804;28;20196;-80
2021/12/23 06:40:39;;;;;;;68.93;31.27;;;1.70;99.90;;;;;;4974172;28;20184;-79
2021/12/23 06:43:05;;;;;;;63.50;30.20;;;1.70;99.90;;;;;;4967506;28;20213;-81
2021/12/23 06:45:31;;;;;;;65.10;29.93;;;1.80;99.90;;;;;;4950749;28;20184;-80
2021/12/23 06:47:58;;;;;;;62.23;29.37;;;1.80;99.90;;;;;;4976424;28;20533;-80
2021/12/23 06:50:24;;;;;;;61.43;30.13;;;1.80;99.90;;;;;;4990329;28;20223;-82
2021/12/23 06:52:50;;;;;;;59.67;28.60;;;1.80;99.90;;;;;;4982428;28;20228;-80
2021/12/23 06:55:18;;;;;;;62.77;30.30;;;1.70;99.90;;;;;;4987347;28;20541;-80
2021/12/23 06:57:44;;;;;;;59.10;30.50;;;1.70;99.90;;;;;;4966424;28;20427;-80
2021/12/23 07:00:15;;;;;;;61.20;29.27;;;1.70;99.90;;;;;;4951545;28;20651;-79
2021/12/23 07:02:42;;;;;;;64.37;30.87;;;1.70;99.90;;;;;;4968332;28;20242;-81
2021/12/23 07:05:09;;;;;;;70.83;29.47;;;1.70;99.90;;;;;;4973002;28;20217;-80
2021/12/23 07:08:12;;;;;;;67.63;29.63;;;1.70;99.90;;;;;;4964808;28;20196;-80
2021/12/23 07:10:29;;;;;;;61.83;29.57;;;1.70;99.90;;;;;;4980474;28;20517;-80
2021/12/23 07:12:56;;;;;;;65.30;30.43;;;1.70;99.90;;;;;;4949476;28;20624;-80
2021/12/23 07:15:24;;;;;;;65.90;31.53;;;1.70;99.90;;;;;;4977002;28;20950;-79
2021/12/23 07:17:51;;;;;;;59.87;29.57;;;1.70;99.90;;;;;;4976656;28;20534;-80
2021/12/23 07:20:17;;;;;;;61.97;29.60;;;1.70;99.90;;;;;;4976762;28;20183;-81
2021/12/23 07:22:42;;;;;;;66.53;29.53;;;1.70;99.90;;;;;;4969187;28;20192;-78
2021/12/23 07:25:09;;;;;;;60.33;30.03;;;1.70;99.90;;;;;;4971622;28;20289;-79
2021/12/23 07:27:35;;;;;;;61.80;29.37;;;1.70;99.90;;;;;;5004532;28;20219;-80
2021/12/23 07:30:01;;;;;;;61.40;30.10;;;1.70;99.90;;;;;;4960208;28;20188;-80
2021/12/23 07:32:26;;;;;;;61.00;30.30;;;1.80;99.90;;;;;;4976366;28;20238;-79
2021/12/23 07:34:53;;;;;;;59.23;29.47;;;1.80;99.90;;;;;;4986545;28;20207;-80
2021/12/23 07:37:20;;;;;;;63.03;29.93;;;1.90;99.90;;;;;;4968183;28;20729;-79
2021/12/23 07:39:47;;;;;;;61.17;30.40;;;1.80;99.90;;;;;;4992383;28;20258;-80
2021/12/23 07:42:15;;;;;;;61.93;30.20;;;1.80;99.90;;;;;;4961158;28;20218;-81
2021/12/23 07:44:42;;;;;;;62.93;30.13;;;1.90;99.90;;;;;;5002849;28;20195;-80
2021/12/23 07:47:08;;;;;;;62.53;30.47;;;1.80;99.90;;;;;;5002868;28;20274;-80
2021/12/23 07:49:33;;;;;;;62.57;30.00;;;1.80;99.90;;;;;;5001061;28;20188;-80
2021/12/23 07:51:59;;;;;;;61.87;30.33;;;1.90;99.90;;;;;;5003696;28;20246;-80
2021/12/23 07:54:25;;;;;;;62.03;30.83;;;1.90;99.90;;;;;;4984824;28;20562;-79
2021/12/23 07:56:51;;;;;;;61.60;30.00;;;1.90;99.90;;;;;;4958913;28;20743;-81
2021/12/23 07:59:17;;;;;;;63.37;31.77;;;1.90;99.90;;;;;;4984184;28;20199;-81
2021/12/23 08:01:42;;;;;;;60.43;30.40;;;1.90;99.90;;;;;;4986233;28;20198;-81
2021/12/23 08:04:08;;;;;;;60.73;28.77;;;1.90;99.90;;;;;;5001436;28;20211;-82
2021/12/23 08:06:33;;;;;;;59.57;29.40;;;1.90;99.90;;;;;;4974916;28;20565;-79
2021/12/23 08:08:59;;;;;;;61.73;29.17;;;2.00;99.90;;;;;;4951389;28;20196;-81
2021/12/23 08:11:25;;;;;;;63.70;29.63;;;1.90;99.90;;;;;;4981903;28;20253;-81
2021/12/23 08:13:50;;;;;;;64.97;29.10;;;2.00;99.90;;;;;;4985674;28;20552;-79
2021/12/23 08:16:16;;;;;;;65.27;29.77;;;1.90;99.90;;;;;;4968174;28;20244;-79
2021/12/23 08:18:42;;;;;;;64.40;30.20;;;2.00;99.90;;;;;;4991586;28;20216;-80
2021/12/23 08:21:08;;;;;;;63.27;29.17;;;2.00;99.90;;;;;;4986237;28;20554;-80
2021/12/23 08:23:33;;;;;;;61.70;28.10;;;2.00;99.90;;;;;;4984911;28;20196;-80
2021/12/23 08:26:03;;;;;;;65.97;29.33;;;2.00;99.90;;;;;;4974989;28;20262;-80
2021/12/23 08:28:29;;;;;;;61.83;28.60;;;2.00;99.90;;;;;;5001179;28;20200;-82
2021/12/23 08:30:55;;;;;;;62.13;29.83;;;2.00;99.90;;;;;;4968508;28;20231;-79
2021/12/23 08:33:21;;;;;;;62.83;28.53;;;2.00;99.90;;;;;;4991373;28;20235;-81
2021/12/23 08:35:47;;;;;;;59.90;29.00;;;2.00;99.90;;;;;;5002095;28;20188;-80
2021/12/23 08:38:12;;;;;;;61.50;28.97;;;2.00;99.90;;;;;;4975144;28;20212;-78
2021/12/23 08:40:38;;;;;;;58.60;28.10;;;2.00;99.90;;;;;;4973429;28;20183;-81
2021/12/23 08:43:04;;;;;;;59.93;28.60;;;2.00;99.90;;;;;;4990539;28;20207;-81
2021/12/23 08:45:32;;;;;;;58.83;27.97;;;2.10;99.90;;;;;;4990850;28;20192;-80
2021/12/23 08:47:58;;;;;;;62.37;28.37;;;2.10;99.90;;;;;;4974230;28;20278;-79
2021/12/23 08:50:26;;;;;;;61.17;29.77;;;2.10;99.90;;;;;;5006658;28;20670;-79
2021/12/23 08:52:52;;;;;;;57.60;27.83;;;2.10;99.90;;;;;;5001837;28;20265;-79
2021/12/23 08:55:19;;;;;;;58.20;29.00;;;2.10;99.90;;;;;;4984736;28;20279;-80
2021/12/23 08:57:45;;;;;;;59.90;26.87;;;2.10;99.90;;;;;;5001021;28;20207;-82
2021/12/23 09:00:14;;;;;;;62.20;27.57;;;2.10;99.90;;;;;;5001102;28;20192;-81
2021/12/23 09:02:40;;;;;;;59.13;27.07;;;2.10;99.90;;;;;;4984395;28;20210;-80
2021/12/23 09:05:07;;;;;;;55.93;28.33;;;2.10;99.90;;;;;;4984043;28;20720;-79
2021/12/23 09:07:33;;;;;;;60.80;28.03;;;2.10;99.90;;;;;;4998672;28;20236;-78
2021/12/23 09:09:58;;;;;;;56.33;27.33;;;2.10;99.90;;;;;;4999452;28;20211;-80
2021/12/23 09:12:25;;;;;;;59.03;28.67;;;2.10;99.90;;;;;;4982771;28;20205;-80
2021/12/23 09:14:51;;;;;;;60.13;28.07;;;2.10;99.90;;;;;;4968199;28;20247;-80
2021/12/23 09:17:17;;;;;;;59.10;27.93;;;2.20;99.90;;;;;;4990356;28;20891;-80
2021/12/23 09:19:44;;;;;;;62.57;28.30;;;2.20;99.90;;;;;;4958192;28;20194;-81
2021/12/23 09:22:11;;;;;;;63.37;29.07;;;2.20;99.90;;;;;;4973881;28;20192;-79
2021/12/23 09:24:40;;;;;;;55.73;26.10;;;2.20;99.90;;;;;;4999530;28;20669;-81
2021/12/23 09:27:23;;;;;;;51.70;26.67;;;2.30;99.90;;;;;;4959054;28;20223;-80
2021/12/23 09:35:02;;;;;;;55.50;26.60;;;2.30;99.90;;;;;;5000938;28;20194;-80
2021/12/23 09:37:28;;;;;;;52.10;26.27;;;2.40;99.90;;;;;;4999557;28;20285;-79
2021/12/23 09:39:56;;;;;;;54.40;27.10;;;2.40;99.90;;;;;;4982047;28;20699;-80
2021/12/23 09:42:29;;;;;;;54.13;26.40;;;2.40;99.90;;;;;;4991763;28;20257;-80
2021/12/23 09:44:58;;;;;;;61.87;27.90;;;2.50;99.90;;;;;;4991020;28;20184;-80
2021/12/23 09:47:27;;;;;;;56.03;26.67;;;2.50;99.90;;;;;;4967512;28;20196;-80
2021/12/23 09:49:55;;;;;;;64.93;28.77;;;2.50;99.90;;;;;;4990702;28;20679;-79
2021/12/23 09:52:22;;;;;;;51.80;24.90;;;2.50;99.90;;;;;;5000021;28;20298;-80
2021/12/23 09:54:49;;;;;;;60.70;27.87;;;2.50;99.90;;;;;;4990091;28;20208;-81
2021/12/23 09:57:14;;;;;;;59.00;27.63;;;2.50;99.90;;;;;;4990299;28;20222;-80
2021/12/23 09:59:41;;;;;;;56.33;25.83;;;2.50;99.90;;;;;;4958526;28;20194;-81
2021/12/23 10:02:07;;;;;;;55.90;25.30;;;2.60;99.90;;;;;;4967163;28;20200;-80
2021/12/23 10:04:33;;;;;;;58.17;26.40;;;2.60;99.90;;;;;;4982687;28;20220;-80
2021/12/23 10:06:59;;;;;;;54.97;24.90;;;2.60;99.90;;;;;;4957540;28;20254;-80
2021/12/23 10:09:56;;;;;;;55.70;26.33;;;2.60;99.90;;;;;;4949372;28;20769;-82
2021/12/23 10:31:33;;;;;;;53.47;26.50;;;2.70;99.90;;;;;;4976124;28;20362;-81
2021/12/23 10:39:43;;;;;;;56.40;25.50;;;3.00;99.90;;;;;;4986346;28;20195;-81
2021/12/23 10:42:12;;;;;;;57.17;24.97;;;3.00;99.90;;;;;;4982934;28;20219;-80
2021/12/23 10:44:38;;;;;;;56.60;24.73;;;3.00;99.90;;;;;;4966593;28;20247;-79
2021/12/23 10:47:06;;;;;;;52.90;25.87;;;3.10;99.90;;;;;;4942355;28;20242;-81
2021/12/23 10:49:52;;;;;;;56.13;24.77;;;3.10;99.90;;;;;;4984035;28;20291;-81
2021/12/23 10:52:26;;;;;;;52.90;24.80;;;3.10;99.90;;;;;;4982812;28;20441;-80
2021/12/23 11:00:27;;;;;;;50.07;24.97;;;3.40;99.90;;;;;;4985793;28;20688;-81
2021/12/23 11:02:58;;;;;;;49.33;23.93;;;3.60;99.90;;;;;;4982648;28;20270;-81
2021/12/23 11:05:28;;;;;;;48.73;22.37;;;3.70;99.90;;;;;;4974309;28;20232;-79
2021/12/23 11:08:02;;;;;;;49.43;24.17;;;3.80;99.90;;;;;;4981992;28;20192;-80
2021/12/23 11:38:27;;;;;;;43.20;20.23;;;4.90;99.90;;;;;;5005308;28;20298;-82
2021/12/23 11:41:06;;;;;;;40.77;21.13;;;5.00;99.90;;;;;;5002914;28;20557;-80
2021/12/23 11:43:54;;;;;;;41.43;20.60;;;5.00;99.90;;;;;;4979624;28;20212;-81
2021/12/23 11:46:25;;;;;;;46.13;21.47;;;5.00;99.90;;;;;;4988843;28;20211;-81
2021/12/23 11:48:54;;;;;;;43.97;20.80;;;5.00;99.90;;;;;;4992695;28;20188;-80
2021/12/23 11:51:29;;;;;;;39.30;20.67;;;5.10;99.90;;;;;;4992613;28;20222;-81
2021/12/23 11:53:57;;;;;;;46.20;21.30;;;5.10;99.90;;;;;;5008444;28;20187;-80
2021/12/23 11:56:25;;;;;;;43.40;20.87;;;5.10;99.90;;;;;;4992522;28;20288;-81
2021/12/23 11:58:55;;;;;;;40.50;19.60;;;5.10;99.90;;;;;;4977175;28;20219;-80
2021/12/23 12:01:31;;;;;;;42.93;21.17;;;5.20;99.90;;;;;;4986528;28;20262;-81
2021/12/23 12:04:04;;;;;;;43.03;20.40;;;5.10;99.90;;;;;;5000666;28;20286;-80
2021/12/23 12:06:38;;;;;;;41.37;20.43;;;5.20;99.90;;;;;;5001667;28;20180;-81
2021/12/23 12:09:26;;;;;;;39.53;20.20;;;5.10;99.90;;;;;;5003055;28;20188;-80
2021/12/23 12:12:06;;;;;;;46.87;21.73;;;5.10;99.90;;;;;;5000914;28;20636;-80
2021/12/23 12:14:41;;;;;;;39.07;19.43;;;5.10;99.90;;;;;;4991921;28;20195;-81
2021/12/23 12:19:52;;;;;;;43.63;21.07;;;5.10;99.90;;;;;;5004081;28;20196;-81
2021/12/23 12:22:49;;;;;;;45.63;20.53;;;5.10;99.90;;;;;;5002204;28;20279;-81
2021/12/23 12:25:24;;;;;;;45.17;20.13;;;5.10;99.90;;;;;;4991849;28;20763;-80
2021/12/23 12:27:56;;;;;;;43.13;21.03;;;5.10;99.90;;;;;;4993917;28;20214;-81
2021/12/23 12:30:48;;;;;;;44.23;20.53;;;5.10;99.90;;;;;;4970315;28;20568;-80
2021/12/23 12:33:23;;;;;;;42.83;20.63;;;5.30;99.90;;;;;;4987466;28;20218;-81
2021/12/23 12:36:11;;;;;;;46.70;20.90;;;5.40;99.90;;;;;;4990887;28;20205;-81
2021/12/23 12:38:40;;;;;;;41.37;19.47;;;5.50;99.90;;;;;;5001913;28;20242;-82
2021/12/23 12:41:12;;;;;;;45.97;20.37;;;5.60;99.90;;;;;;4992056;28;20679;-81
2021/12/23 12:43:48;;;;;;;43.50;19.97;;;5.60;99.90;;;;;;4991800;28;20273;-81
2021/12/23 12:46:38;;;;;;;41.90;19.57;;;5.50;99.90;;;;;;5002602;28;20182;-79
2021/12/23 12:49:12;;;;;;;37.30;18.23;;;5.50;99.90;;;;;;5002253;28;20280;-80
2021/12/23 12:51:43;;;;;;;38.07;18.40;;;5.40;99.90;;;;;;4990533;28;20180;-82
2021/12/23 12:54:14;;;;;;;41.63;19.77;;;5.30;99.90;;;;;;4991071;28;20214;-81
2021/12/23 12:56:55;;;;;;;41.37;20.40;;;5.30;99.90;;;;;;4992612;28;20207;-80
2021/12/23 12:59:24;;;;;;;42.60;19.00;;;5.20;99.90;;;;;;4992069;28;20250;-81
2021/12/23 13:01:52;;;;;;;46.80;20.07;;;5.30;99.90;;;;;;5002396;28;20183;-80
2021/12/23 13:04:42;;;;;;;44.07;21.10;;;5.20;99.90;;;;;;4984596;28;20205;-80
2021/12/23 13:07:25;;;;;;;43.00;20.53;;;5.20;99.90;;;;;;4984684;28;20188;-81
2021/12/23 13:09:57;;;;;;;43.80;20.47;;;5.20;99.90;;;;;;4973404;28;20686;-80
2021/12/23 13:12:53;;;;;;;43.23;21.00;;;5.30;99.90;;;;;;4985605;28;20692;-81
2021/12/23 13:15:28;;;;;;;38.70;20.13;;;5.30;99.90;;;;;;5009019;28;20734;-81
2021/12/23 13:18:18;;;;;;;42.03;20.07;;;5.30;99.90;;;;;;5003019;28;20769;-81
2021/12/23 13:20:47;;;;;;;41.67;20.03;;;5.20;99.90;;;;;;4992793;28;20239;-81
2021/12/23 13:23:58;;;;;;;42.27;20.40;;;5.10;99.90;;;;;;5003146;28;20180;-79
2021/12/23 13:26:25;;;;;;;38.43;20.17;;;5.10;99.90;;;;;;4895114;29;20187;-81
2021/12/23 13:28:56;;;;;;;36.93;19.83;;;5.10;99.90;;;;;;4897036;29;20507;-79
2021/12/23 13:31:23;;;;;;;37.97;19.63;;;5.10;99.90;;;;;;4948947;28;20196;-81
2021/12/23 13:33:59;;;;;;;42.53;20.83;;;5.20;99.90;;;;;;5006748;28;20678;-81
2021/12/23 13:36:34;;;;;;;41.40;20.70;;;5.20;99.90;;;;;;5007841;28;20188;-80
2021/12/23 13:39:14;;;;;;;39.40;20.27;;;5.20;99.90;;;;;;4990575;28;20590;-80
2021/12/23 13:41:46;;;;;;;39.00;20.50;;;5.30;99.90;;;;;;4985818;28;20334;-81
2021/12/23 13:44:18;;;;;;;39.30;19.87;;;5.30;99.90;;;;;;5000493;28;20180;-81
2021/12/23 13:46:54;;;;;;;41.37;20.37;;;5.30;99.90;;;;;;5002443;28;20275;-80
2021/12/23 13:49:19;;;;;;;41.03;20.97;;;5.30;99.90;;;;;;4986394;28;20203;-81
2021/12/23 13:51:48;;;;;;;46.63;21.30;;;5.30;99.90;;;;;;4975286;28;20194;-81